sensor_id;sensor_type;location;lat;lon;timestamp;P1;durP1;ratioP1;P2;durP2;ratioP2
66886;SDS011;67239;51.680;5.976;2023-09-08T00:01:29;8.15;;;5.13;;
66886;SDS011;67239;51.680;5.976;2023-09-08T00:03:57;6.65;;;5.15;;
66886;SDS011;67239;51.680;5.976;2023-09-08T00:06:25;7.00;;;5.13;;
66886;SDS011;67239;51.680;5.976;2023-09-08T00:08:52;7.55;;;5.22;;
66886;SDS011;67239;51.680;5.976;2023-09-08T00:11:19;10.40;;;6.25;;
66886;SDS011;67239;51.680;5.976;2023-09-08T00:13:46;7.15;;;5.25;;
66886;SDS011;67239;51.680;5.976;2023-09-08T00:16:13;8.60;;;5.05;;
66886;SDS011;67239;51.680;5.976;2023-09-08T00:18:40;9.27;;;5.70;;
66886;SDS011;67239;51.680;5.976;2023-09-08T00:21:07;11.90;;;5.60;;
66886;SDS011;67239;51.680;5.976;2023-09-08T00:23:34;8.07;;;5.90;;
66886;SDS011;67239;51.680;5.976;2023-09-08T00:26:01;9.70;;;5.90;;
66886;SDS011;67239;51.680;5.976;2023-09-08T00:28:28;8.27;;;6.18;;
66886;SDS011;67239;51.680;5.976;2023-09-08T00:30:55;7.43;;;5.60;;
66886;SDS011;67239;51.680;5.976;2023-09-08T00:33:22;7.43;;;6.13;;
66886;SDS011;67239;51.680;5.976;2023-09-08T00:35:49;9.13;;;6.15;;
66886;SDS011;67239;51.680;5.976;2023-09-08T00:38:17;9.35;;;6.72;;
66886;SDS011;67239;51.680;5.976;2023-09-08T00:40:44;10.82;;;6.95;;
66886;SDS011;67239;51.680;5.976;2023-09-08T00:43:11;12.13;;;6.82;;
66886;SDS011;67239;51.680;5.976;2023-09-08T00:45:40;10.65;;;7.05;;
66886;SDS011;67239;51.680;5.976;2023-09-08T00:48:10;10.07;;;6.85;;
66886;SDS011;67239;51.680;5.976;2023-09-08T00:50:37;9.60;;;7.28;;
66886;SDS011;67239;51.680;5.976;2023-09-08T00:53:06;11.05;;;7.03;;
66886;SDS011;67239;51.680;5.976;2023-09-08T00:55:35;9.38;;;7.05;;
66886;SDS011;67239;51.680;5.976;2023-09-08T00:58:02;11.02;;;6.72;;
66886;SDS011;67239;51.680;5.976;2023-09-08T01:00:29;9.68;;;7.10;;
66886;SDS011;67239;51.680;5.976;2023-09-08T01:02:59;10.48;;;6.65;;
66886;SDS011;67239;51.680;5.976;2023-09-08T01:05:27;8.75;;;6.75;;
66886;SDS011;67239;51.680;5.976;2023-09-08T01:07:54;9.75;;;6.93;;
66886;SDS011;67239;51.680;5.976;2023-09-08T01:10:23;10.55;;;7.20;;
66886;SDS011;67239;51.680;5.976;2023-09-08T01:12:50;11.32;;;6.82;;
66886;SDS011;67239;51.680;5.976;2023-09-08T01:15:18;9.10;;;7.05;;
66886;SDS011;67239;51.680;5.976;2023-09-08T01:17:45;9.10;;;6.60;;
66886;SDS011;67239;51.680;5.976;2023-09-08T01:20:15;9.20;;;6.55;;
66886;SDS011;67239;51.680;5.976;2023-09-08T01:23:05;9.75;;;7.20;;
66886;SDS011;67239;51.680;5.976;2023-09-08T01:25:52;9.13;;;7.30;;
66886;SDS011;67239;51.680;5.976;2023-09-08T01:28:26;9.52;;;7.25;;
66886;SDS011;67239;51.680;5.976;2023-09-08T01:30:54;10.48;;;7.50;;
66886;SDS011;67239;51.680;5.976;2023-09-08T01:33:24;11.25;;;7.50;;
66886;SDS011;67239;51.680;5.976;2023-09-08T01:35:52;9.32;;;7.03;;
66886;SDS011;67239;51.680;5.976;2023-09-08T01:38:20;8.88;;;6.50;;
66886;SDS011;67239;51.680;5.976;2023-09-08T01:40:48;8.02;;;6.53;;
66886;SDS011;67239;51.680;5.976;2023-09-08T01:43:15;8.65;;;6.80;;
66886;SDS011;67239;51.680;5.976;2023-09-08T01:45:42;9.20;;;6.60;;
66886;SDS011;67239;51.680;5.976;2023-09-08T01:48:09;10.65;;;7.22;;
66886;SDS011;67239;51.680;5.976;2023-09-08T01:50:36;10.20;;;6.53;;
66886;SDS011;67239;51.680;5.976;2023-09-08T01:53:03;9.82;;;6.30;;
66886;SDS011;67239;51.680;5.976;2023-09-08T01:55:30;11.40;;;6.43;;
66886;SDS011;67239;51.680;5.976;2023-09-08T01:57:58;10.20;;;6.53;;
66886;SDS011;67239;51.680;5.976;2023-09-08T02:00:25;9.70;;;6.32;;
66886;SDS011;67239;51.680;5.976;2023-09-08T02:02:52;10.13;;;6.75;;
66886;SDS011;67239;51.680;5.976;2023-09-08T02:05:19;9.43;;;6.53;;
66886;SDS011;67239;51.680;5.976;2023-09-08T02:07:48;11.95;;;7.43;;
66886;SDS011;67239;51.680;5.976;2023-09-08T02:10:16;9.27;;;6.10;;
66886;SDS011;67239;51.680;5.976;2023-09-08T02:12:47;10.80;;;7.05;;
66886;SDS011;67239;51.680;5.976;2023-09-08T02:15:15;9.80;;;6.65;;
66886;SDS011;67239;51.680;5.976;2023-09-08T02:17:44;10.15;;;7.15;;
66886;SDS011;67239;51.680;5.976;2023-09-08T02:20:11;8.60;;;6.80;;
66886;SDS011;67239;51.680;5.976;2023-09-08T02:22:38;8.95;;;6.85;;
66886;SDS011;67239;51.680;5.976;2023-09-08T02:25:06;12.30;;;7.25;;
66886;SDS011;67239;51.680;5.976;2023-09-08T02:27:33;9.98;;;7.90;;
66886;SDS011;67239;51.680;5.976;2023-09-08T02:30:00;10.68;;;7.20;;
66886;SDS011;67239;51.680;5.976;2023-09-08T02:32:29;11.27;;;7.57;;
66886;SDS011;67239;51.680;5.976;2023-09-08T02:34:56;12.45;;;7.70;;
66886;SDS011;67239;51.680;5.976;2023-09-08T02:37:23;9.65;;;7.82;;
66886;SDS011;67239;51.680;5.976;2023-09-08T02:39:50;10.98;;;7.15;;
66886;SDS011;67239;51.680;5.976;2023-09-08T02:42:18;11.73;;;7.68;;
66886;SDS011;67239;51.680;5.976;2023-09-08T02:44:45;13.43;;;7.50;;
66886;SDS011;67239;51.680;5.976;2023-09-08T02:47:12;11.48;;;7.57;;
66886;SDS011;67239;51.680;5.976;2023-09-08T02:49:41;11.30;;;6.88;;
66886;SDS011;67239;51.680;5.976;2023-09-08T02:52:09;9.77;;;7.00;;
66886;SDS011;67239;51.680;5.976;2023-09-08T02:54:36;9.48;;;6.95;;
66886;SDS011;67239;51.680;5.976;2023-09-08T02:57:03;10.57;;;7.70;;
66886;SDS011;67239;51.680;5.976;2023-09-08T02:59:30;9.32;;;7.05;;
66886;SDS011;67239;51.680;5.976;2023-09-08T03:01:58;9.40;;;7.15;;
66886;SDS011;67239;51.680;5.976;2023-09-08T03:04:27;9.68;;;7.40;;
66886;SDS011;67239;51.680;5.976;2023-09-08T03:06:54;11.23;;;7.60;;
66886;SDS011;67239;51.680;5.976;2023-09-08T03:09:22;10.85;;;8.00;;
66886;SDS011;67239;51.680;5.976;2023-09-08T03:11:49;11.40;;;7.35;;
66886;SDS011;67239;51.680;5.976;2023-09-08T03:14:16;12.30;;;8.85;;
66886;SDS011;67239;51.680;5.976;2023-09-08T03:16:43;11.93;;;7.70;;
66886;SDS011;67239;51.680;5.976;2023-09-08T03:19:10;12.48;;;7.75;;
66886;SDS011;67239;51.680;5.976;2023-09-08T03:21:37;11.90;;;7.43;;
66886;SDS011;67239;51.680;5.976;2023-09-08T03:24:05;13.00;;;7.60;;
66886;SDS011;67239;51.680;5.976;2023-09-08T03:26:32;11.38;;;8.00;;
66886;SDS011;67239;51.680;5.976;2023-09-08T03:28:59;12.50;;;8.38;;
66886;SDS011;67239;51.680;5.976;2023-09-08T03:31:27;11.75;;;8.68;;
66886;SDS011;67239;51.680;5.976;2023-09-08T03:33:55;12.27;;;7.95;;
66886;SDS011;67239;51.680;5.976;2023-09-08T03:36:22;10.90;;;7.95;;
66886;SDS011;67239;51.680;5.976;2023-09-08T03:38:50;11.02;;;8.70;;
66886;SDS011;67239;51.680;5.976;2023-09-08T03:41:17;12.32;;;8.85;;
66886;SDS011;67239;51.680;5.976;2023-09-08T03:43:45;11.40;;;8.20;;
66886;SDS011;67239;51.680;5.976;2023-09-08T03:46:12;11.23;;;8.27;;
66886;SDS011;67239;51.680;5.976;2023-09-08T03:48:39;13.23;;;8.70;;
66886;SDS011;67239;51.680;5.976;2023-09-08T03:51:06;9.95;;;8.57;;
66886;SDS011;67239;51.680;5.976;2023-09-08T03:53:33;11.02;;;7.95;;
66886;SDS011;67239;51.680;5.976;2023-09-08T03:56:01;12.63;;;8.20;;
66886;SDS011;67239;51.680;5.976;2023-09-08T03:58:28;11.98;;;8.48;;
66886;SDS011;67239;51.680;5.976;2023-09-08T04:00:56;12.90;;;8.48;;
66886;SDS011;67239;51.680;5.976;2023-09-08T04:03:23;9.55;;;8.02;;
66886;SDS011;67239;51.680;5.976;2023-09-08T04:05:51;9.45;;;7.90;;
66886;SDS011;67239;51.680;5.976;2023-09-08T04:08:18;11.55;;;8.23;;
66886;SDS011;67239;51.680;5.976;2023-09-08T04:10:45;11.57;;;8.95;;
66886;SDS011;67239;51.680;5.976;2023-09-08T04:13:12;10.60;;;9.45;;
66886;SDS011;67239;51.680;5.976;2023-09-08T04:15:39;12.18;;;8.95;;
66886;SDS011;67239;51.680;5.976;2023-09-08T04:18:06;14.93;;;9.93;;
66886;SDS011;67239;51.680;5.976;2023-09-08T04:20:34;16.60;;;9.50;;
66886;SDS011;67239;51.680;5.976;2023-09-08T04:23:01;14.32;;;8.85;;
66886;SDS011;67239;51.680;5.976;2023-09-08T04:25:28;11.68;;;8.43;;
66886;SDS011;67239;51.680;5.976;2023-09-08T04:27:55;12.27;;;8.93;;
66886;SDS011;67239;51.680;5.976;2023-09-08T04:30:22;11.15;;;7.75;;
66886;SDS011;67239;51.680;5.976;2023-09-08T04:32:49;13.23;;;9.35;;
66886;SDS011;67239;51.680;5.976;2023-09-08T04:35:16;13.18;;;9.43;;
66886;SDS011;67239;51.680;5.976;2023-09-08T04:37:44;14.65;;;10.10;;
66886;SDS011;67239;51.680;5.976;2023-09-08T04:40:11;11.82;;;9.25;;
66886;SDS011;67239;51.680;5.976;2023-09-08T04:42:38;11.82;;;8.50;;
66886;SDS011;67239;51.680;5.976;2023-09-08T04:45:08;22.02;;;9.45;;
66886;SDS011;67239;51.680;5.976;2023-09-08T04:47:40;10.90;;;9.20;;
66886;SDS011;67239;51.680;5.976;2023-09-08T04:50:10;12.70;;;9.60;;
66886;SDS011;67239;51.680;5.976;2023-09-08T04:52:40;13.35;;;10.02;;
66886;SDS011;67239;51.680;5.976;2023-09-08T04:55:10;14.57;;;9.43;;
66886;SDS011;67239;51.680;5.976;2023-09-08T04:57:40;11.02;;;8.80;;
66886;SDS011;67239;51.680;5.976;2023-09-08T05:00:08;13.52;;;9.70;;
66886;SDS011;67239;51.680;5.976;2023-09-08T05:02:36;12.35;;;9.02;;
66886;SDS011;67239;51.680;5.976;2023-09-08T05:05:04;13.02;;;9.63;;
66886;SDS011;67239;51.680;5.976;2023-09-08T05:07:32;16.88;;;9.65;;
66886;SDS011;67239;51.680;5.976;2023-09-08T05:09:59;11.95;;;9.98;;
66886;SDS011;67239;51.680;5.976;2023-09-08T05:12:29;12.38;;;9.90;;
66886;SDS011;67239;51.680;5.976;2023-09-08T05:14:57;12.25;;;9.93;;
66886;SDS011;67239;51.680;5.976;2023-09-08T05:17:34;12.30;;;9.27;;
66886;SDS011;67239;51.680;5.976;2023-09-08T05:20:02;16.75;;;9.95;;
66886;SDS011;67239;51.680;5.976;2023-09-08T05:22:30;12.68;;;9.38;;
66886;SDS011;67239;51.680;5.976;2023-09-08T05:24:58;13.13;;;9.40;;
66886;SDS011;67239;51.680;5.976;2023-09-08T05:27:25;12.02;;;9.90;;
66886;SDS011;67239;51.680;5.976;2023-09-08T05:29:53;12.35;;;9.70;;
66886;SDS011;67239;51.680;5.976;2023-09-08T05:32:21;14.10;;;10.05;;
66886;SDS011;67239;51.680;5.976;2023-09-08T05:34:48;15.30;;;10.40;;
66886;SDS011;67239;51.680;5.976;2023-09-08T05:37:15;11.82;;;9.73;;
66886;SDS011;67239;51.680;5.976;2023-09-08T05:39:43;13.63;;;9.93;;
66886;SDS011;67239;51.680;5.976;2023-09-08T05:42:10;13.18;;;9.75;;
66886;SDS011;67239;51.680;5.976;2023-09-08T05:44:38;17.33;;;9.25;;
66886;SDS011;67239;51.680;5.976;2023-09-08T05:47:06;15.90;;;9.52;;
66886;SDS011;67239;51.680;5.976;2023-09-08T05:49:33;14.60;;;9.77;;
66886;SDS011;67239;51.680;5.976;2023-09-08T05:52:03;15.07;;;10.10;;
66886;SDS011;67239;51.680;5.976;2023-09-08T05:54:32;16.33;;;9.65;;
66886;SDS011;67239;51.680;5.976;2023-09-08T05:56:59;16.60;;;10.00;;
66886;SDS011;67239;51.680;5.976;2023-09-08T05:59:26;12.07;;;9.35;;
66886;SDS011;67239;51.680;5.976;2023-09-08T06:01:54;12.38;;;9.20;;
66886;SDS011;67239;51.680;5.976;2023-09-08T06:04:21;13.75;;;9.20;;
66886;SDS011;67239;51.680;5.976;2023-09-08T06:06:49;13.98;;;9.70;;
66886;SDS011;67239;51.680;5.976;2023-09-08T06:09:16;14.02;;;8.98;;
66886;SDS011;67239;51.680;5.976;2023-09-08T06:11:43;13.05;;;9.80;;
66886;SDS011;67239;51.680;5.976;2023-09-08T06:14:11;15.73;;;9.73;;
66886;SDS011;67239;51.680;5.976;2023-09-08T06:16:40;14.65;;;9.60;;
66886;SDS011;67239;51.680;5.976;2023-09-08T06:19:08;15.30;;;9.30;;
66886;SDS011;67239;51.680;5.976;2023-09-08T06:21:35;14.10;;;10.07;;
66886;SDS011;67239;51.680;5.976;2023-09-08T06:24:02;19.90;;;10.07;;
66886;SDS011;67239;51.680;5.976;2023-09-08T06:26:30;12.23;;;9.50;;
66886;SDS011;67239;51.680;5.976;2023-09-08T06:28:58;16.13;;;9.25;;
66886;SDS011;67239;51.680;5.976;2023-09-08T06:31:26;14.13;;;9.10;;
66886;SDS011;67239;51.680;5.976;2023-09-08T06:33:54;13.15;;;9.75;;
66886;SDS011;67239;51.680;5.976;2023-09-08T06:36:21;13.65;;;9.40;;
66886;SDS011;67239;51.680;5.976;2023-09-08T06:38:51;11.07;;;8.43;;
66886;SDS011;67239;51.680;5.976;2023-09-08T06:41:18;13.80;;;9.25;;
66886;SDS011;67239;51.680;5.976;2023-09-08T06:43:45;18.92;;;10.00;;
66886;SDS011;67239;51.680;5.976;2023-09-08T06:46:19;13.27;;;8.95;;
66886;SDS011;67239;51.680;5.976;2023-09-08T06:48:47;15.57;;;9.40;;
66886;SDS011;67239;51.680;5.976;2023-09-08T06:51:14;16.40;;;9.48;;
66886;SDS011;67239;51.680;5.976;2023-09-08T06:53:43;13.02;;;9.68;;
66886;SDS011;67239;51.680;5.976;2023-09-08T06:56:10;11.10;;;8.98;;
66886;SDS011;67239;51.680;5.976;2023-09-08T06:58:37;14.50;;;9.70;;
66886;SDS011;67239;51.680;5.976;2023-09-08T07:01:05;13.82;;;9.88;;
66886;SDS011;67239;51.680;5.976;2023-09-08T07:03:32;12.45;;;8.95;;
66886;SDS011;67239;51.680;5.976;2023-09-08T07:06:05;10.87;;;8.70;;
66886;SDS011;67239;51.680;5.976;2023-09-08T07:08:32;12.32;;;8.50;;
66886;SDS011;67239;51.680;5.976;2023-09-08T07:11:00;11.48;;;8.23;;
66886;SDS011;67239;51.680;5.976;2023-09-08T07:13:27;13.40;;;8.43;;
66886;SDS011;67239;51.680;5.976;2023-09-08T07:15:56;12.25;;;8.38;;
66886;SDS011;67239;51.680;5.976;2023-09-08T07:18:23;9.18;;;8.05;;
66886;SDS011;67239;51.680;5.976;2023-09-08T07:20:50;11.40;;;8.30;;
66886;SDS011;67239;51.680;5.976;2023-09-08T07:23:19;14.48;;;8.73;;
66886;SDS011;67239;51.680;5.976;2023-09-08T07:25:47;9.90;;;7.53;;
66886;SDS011;67239;51.680;5.976;2023-09-08T07:28:16;11.38;;;7.60;;
66886;SDS011;67239;51.680;5.976;2023-09-08T07:30:46;11.07;;;7.38;;
66886;SDS011;67239;51.680;5.976;2023-09-08T07:33:13;11.65;;;7.50;;
66886;SDS011;67239;51.680;5.976;2023-09-08T07:35:42;11.95;;;7.13;;
66886;SDS011;67239;51.680;5.976;2023-09-08T07:38:09;9.00;;;6.63;;
66886;SDS011;67239;51.680;5.976;2023-09-08T07:40:36;13.82;;;6.38;;
66886;SDS011;67239;51.680;5.976;2023-09-08T07:43:05;11.07;;;6.47;;
66886;SDS011;67239;51.680;5.976;2023-09-08T07:45:32;8.50;;;6.53;;
66886;SDS011;67239;51.680;5.976;2023-09-08T07:47:59;15.60;;;7.22;;
66886;SDS011;67239;51.680;5.976;2023-09-08T07:50:27;10.05;;;6.68;;
66886;SDS011;67239;51.680;5.976;2023-09-08T07:52:55;10.98;;;6.60;;
66886;SDS011;67239;51.680;5.976;2023-09-08T07:55:24;13.05;;;7.07;;
66886;SDS011;67239;51.680;5.976;2023-09-08T07:57:55;11.55;;;6.63;;
66886;SDS011;67239;51.680;5.976;2023-09-08T08:00:24;8.40;;;6.10;;
66886;SDS011;67239;51.680;5.976;2023-09-08T08:02:51;8.88;;;6.10;;
66886;SDS011;67239;51.680;5.976;2023-09-08T08:05:22;8.48;;;6.03;;
66886;SDS011;67239;51.680;5.976;2023-09-08T08:07:49;10.15;;;6.13;;
66886;SDS011;67239;51.680;5.976;2023-09-08T08:10:17;8.82;;;6.20;;
66886;SDS011;67239;51.680;5.976;2023-09-08T08:12:45;9.60;;;5.78;;
66886;SDS011;67239;51.680;5.976;2023-09-08T08:15:13;8.98;;;5.72;;
66886;SDS011;67239;51.680;5.976;2023-09-08T08:17:40;9.38;;;5.72;;
66886;SDS011;67239;51.680;5.976;2023-09-08T08:20:09;8.30;;;6.05;;
66886;SDS011;67239;51.680;5.976;2023-09-08T08:22:44;10.27;;;6.07;;
66886;SDS011;67239;51.680;5.976;2023-09-08T08:25:12;10.77;;;5.90;;
66886;SDS011;67239;51.680;5.976;2023-09-08T08:27:40;8.27;;;5.60;;
66886;SDS011;67239;51.680;5.976;2023-09-08T08:30:08;8.07;;;5.22;;
66886;SDS011;67239;51.680;5.976;2023-09-08T08:32:35;9.70;;;5.55;;
66886;SDS011;67239;51.680;5.976;2023-09-08T08:35:03;7.88;;;5.60;;
66886;SDS011;67239;51.680;5.976;2023-09-08T08:37:34;9.55;;;6.65;;
66886;SDS011;67239;51.680;5.976;2023-09-08T08:40:01;15.57;;;7.47;;
66886;SDS011;67239;51.680;5.976;2023-09-08T08:42:32;10.63;;;6.90;;
66886;SDS011;67239;51.680;5.976;2023-09-08T08:45:00;11.93;;;6.78;;
66886;SDS011;67239;51.680;5.976;2023-09-08T08:47:28;11.68;;;6.53;;
66886;SDS011;67239;51.680;5.976;2023-09-08T08:49:56;13.57;;;6.50;;
66886;SDS011;67239;51.680;5.976;2023-09-08T08:52:26;11.23;;;6.38;;
66886;SDS011;67239;51.680;5.976;2023-09-08T08:54:54;10.85;;;6.97;;
66886;SDS011;67239;51.680;5.976;2023-09-08T08:57:22;11.43;;;6.03;;
66886;SDS011;67239;51.680;5.976;2023-09-08T08:59:50;11.82;;;5.85;;
66886;SDS011;67239;51.680;5.976;2023-09-08T09:02:19;7.63;;;5.75;;
66886;SDS011;67239;51.680;5.976;2023-09-08T09:04:49;11.70;;;6.03;;
66886;SDS011;67239;51.680;5.976;2023-09-08T09:07:18;8.80;;;5.28;;
66886;SDS011;67239;51.680;5.976;2023-09-08T09:09:46;8.63;;;5.05;;
66886;SDS011;67239;51.680;5.976;2023-09-08T09:12:13;8.05;;;5.13;;
66886;SDS011;67239;51.680;5.976;2023-09-08T09:14:44;5.78;;;4.97;;
66886;SDS011;67239;51.680;5.976;2023-09-08T09:17:14;10.30;;;4.70;;
66886;SDS011;67239;51.680;5.976;2023-09-08T09:19:42;6.88;;;5.43;;
66886;SDS011;67239;51.680;5.976;2023-09-08T09:22:09;10.10;;;5.30;;
66886;SDS011;67239;51.680;5.976;2023-09-08T09:24:37;7.68;;;4.80;;
66886;SDS011;67239;51.680;5.976;2023-09-08T09:27:11;8.73;;;5.88;;
66886;SDS011;67239;51.680;5.976;2023-09-08T09:32:14;7.57;;;5.45;;
66886;SDS011;67239;51.680;5.976;2023-09-08T09:34:47;12.55;;;5.50;;
66886;SDS011;67239;51.680;5.976;2023-09-08T09:37:17;10.60;;;6.00;;
66886;SDS011;67239;51.680;5.976;2023-09-08T09:39:52;8.95;;;5.75;;
66886;SDS011;67239;51.680;5.976;2023-09-08T09:42:21;8.07;;;5.45;;
66886;SDS011;67239;51.680;5.976;2023-09-08T09:44:49;9.30;;;5.38;;
66886;SDS011;67239;51.680;5.976;2023-09-08T09:47:18;10.77;;;5.65;;
66886;SDS011;67239;51.680;5.976;2023-09-08T09:49:47;8.80;;;6.38;;
66886;SDS011;67239;51.680;5.976;2023-09-08T09:52:22;10.98;;;6.97;;
66886;SDS011;67239;51.680;5.976;2023-09-08T09:54:53;9.85;;;6.40;;
66886;SDS011;67239;51.680;5.976;2023-09-08T09:57:22;11.30;;;6.00;;
66886;SDS011;67239;51.680;5.976;2023-09-08T09:59:50;15.82;;;6.63;;
66886;SDS011;67239;51.680;5.976;2023-09-08T10:02:20;10.57;;;5.70;;
66886;SDS011;67239;51.680;5.976;2023-09-08T10:04:49;7.65;;;5.65;;
66886;SDS011;67239;51.680;5.976;2023-09-08T10:07:17;9.32;;;5.25;;
66886;SDS011;67239;51.680;5.976;2023-09-08T10:09:45;8.57;;;4.78;;
66886;SDS011;67239;51.680;5.976;2023-09-08T10:12:14;4.88;;;4.03;;
66886;SDS011;67239;51.680;5.976;2023-09-08T10:14:43;20.08;;;5.03;;
66886;SDS011;67239;51.680;5.976;2023-09-08T10:17:15;6.80;;;4.93;;
66886;SDS011;67239;51.680;5.976;2023-09-08T10:19:51;6.65;;;4.45;;
66886;SDS011;67239;51.680;5.976;2023-09-08T10:22:23;8.93;;;5.55;;
66886;SDS011;67239;51.680;5.976;2023-09-08T10:24:57;8.50;;;5.70;;
66886;SDS011;67239;51.680;5.976;2023-09-08T10:27:34;6.10;;;4.40;;
66886;SDS011;67239;51.680;5.976;2023-09-08T10:30:05;12.13;;;4.72;;
66886;SDS011;67239;51.680;5.976;2023-09-08T10:32:34;14.88;;;4.90;;
66886;SDS011;67239;51.680;5.976;2023-09-08T10:35:03;10.38;;;4.95;;
66886;SDS011;67239;51.680;5.976;2023-09-08T10:37:32;8.23;;;4.43;;
66886;SDS011;67239;51.680;5.976;2023-09-08T10:43:06;5.53;;;4.20;;
66886;SDS011;67239;51.680;5.976;2023-09-08T10:45:35;9.15;;;4.88;;
66886;SDS011;67239;51.680;5.976;2023-09-08T10:48:02;9.93;;;5.20;;
66886;SDS011;67239;51.680;5.976;2023-09-08T10:50:31;7.28;;;4.30;;
66886;SDS011;67239;51.680;5.976;2023-09-08T10:53:14;5.38;;;4.10;;
66886;SDS011;67239;51.680;5.976;2023-09-08T10:55:49;6.20;;;4.70;;
66886;SDS011;67239;51.680;5.976;2023-09-08T10:58:39;7.18;;;4.80;;
66886;SDS011;67239;51.680;5.976;2023-09-08T11:01:15;5.82;;;4.40;;
66886;SDS011;67239;51.680;5.976;2023-09-08T11:03:46;8.65;;;4.30;;
66886;SDS011;67239;51.680;5.976;2023-09-08T11:06:17;6.25;;;4.80;;
66886;SDS011;67239;51.680;5.976;2023-09-08T11:08:49;5.30;;;4.30;;
66886;SDS011;67239;51.680;5.976;2023-09-08T11:11:23;8.50;;;4.28;;
66886;SDS011;67239;51.680;5.976;2023-09-08T11:13:50;8.10;;;4.65;;
66886;SDS011;67239;51.680;5.976;2023-09-08T11:16:17;6.03;;;4.53;;
66886;SDS011;67239;51.680;5.976;2023-09-08T11:18:50;9.02;;;4.28;;
66886;SDS011;67239;51.680;5.976;2023-09-08T11:21:18;8.05;;;4.50;;
66886;SDS011;67239;51.680;5.976;2023-09-08T11:23:45;8.88;;;4.28;;
66886;SDS011;67239;51.680;5.976;2023-09-08T11:26:13;9.35;;;4.80;;
66886;SDS011;67239;51.680;5.976;2023-09-08T11:28:40;8.75;;;4.47;;
66886;SDS011;67239;51.680;5.976;2023-09-08T11:31:08;6.82;;;4.30;;
66886;SDS011;67239;51.680;5.976;2023-09-08T11:33:39;6.07;;;3.92;;
66886;SDS011;67239;51.680;5.976;2023-09-08T11:36:13;6.10;;;4.00;;
66886;SDS011;67239;51.680;5.976;2023-09-08T11:38:42;9.77;;;4.03;;
66886;SDS011;67239;51.680;5.976;2023-09-08T11:41:11;8.43;;;4.63;;
66886;SDS011;67239;51.680;5.976;2023-09-08T11:43:39;10.85;;;4.60;;
66886;SDS011;67239;51.680;5.976;2023-09-08T11:46:06;5.68;;;3.80;;
66886;SDS011;67239;51.680;5.976;2023-09-08T11:48:34;8.30;;;3.88;;
66886;SDS011;67239;51.680;5.976;2023-09-08T11:51:02;7.05;;;4.35;;
66886;SDS011;67239;51.680;5.976;2023-09-08T11:53:29;8.63;;;4.05;;
66886;SDS011;67239;51.680;5.976;2023-09-08T11:56:00;5.85;;;3.38;;
66886;SDS011;67239;51.680;5.976;2023-09-08T11:58:27;5.95;;;3.28;;
66886;SDS011;67239;51.680;5.976;2023-09-08T12:00:56;4.25;;;3.60;;
66886;SDS011;67239;51.680;5.976;2023-09-08T12:03:24;6.28;;;3.47;;
66886;SDS011;67239;51.680;5.976;2023-09-08T12:05:51;11.63;;;3.95;;
66886;SDS011;67239;51.680;5.976;2023-09-08T12:08:19;4.80;;;3.55;;
66886;SDS011;67239;51.680;5.976;2023-09-08T12:10:47;5.28;;;3.75;;
66886;SDS011;67239;51.680;5.976;2023-09-08T12:13:20;5.45;;;3.20;;
66886;SDS011;67239;51.680;5.976;2023-09-08T12:15:49;5.63;;;3.47;;
66886;SDS011;67239;51.680;5.976;2023-09-08T12:18:16;5.80;;;3.28;;
66886;SDS011;67239;51.680;5.976;2023-09-08T12:20:43;5.88;;;3.13;;
66886;SDS011;67239;51.680;5.976;2023-09-08T12:23:15;4.25;;;3.08;;
66886;SDS011;67239;51.680;5.976;2023-09-08T12:25:48;13.23;;;4.18;;
66886;SDS011;67239;51.680;5.976;2023-09-08T12:28:19;7.75;;;3.60;;
66886;SDS011;67239;51.680;5.976;2023-09-08T12:30:50;9.32;;;3.92;;
66886;SDS011;67239;51.680;5.976;2023-09-08T12:33:19;4.95;;;3.55;;
66886;SDS011;67239;51.680;5.976;2023-09-08T12:35:48;8.10;;;3.92;;
66886;SDS011;67239;51.680;5.976;2023-09-08T12:38:18;20.23;;;4.88;;
66886;SDS011;67239;51.680;5.976;2023-09-08T12:40:45;9.02;;;4.60;;
66886;SDS011;67239;51.680;5.976;2023-09-08T12:43:12;25.52;;;5.85;;
66886;SDS011;67239;51.680;5.976;2023-09-08T12:45:54;7.32;;;4.63;;
66886;SDS011;67239;51.680;5.976;2023-09-08T12:48:23;9.35;;;4.00;;
66886;SDS011;67239;51.680;5.976;2023-09-08T12:50:51;8.23;;;4.15;;
66886;SDS011;67239;51.680;5.976;2023-09-08T12:53:19;6.75;;;4.18;;
66886;SDS011;67239;51.680;5.976;2023-09-08T12:55:47;8.15;;;4.05;;
66886;SDS011;67239;51.680;5.976;2023-09-08T12:58:15;9.77;;;4.25;;
66886;SDS011;67239;51.680;5.976;2023-09-08T13:00:43;7.20;;;4.07;;
66886;SDS011;67239;51.680;5.976;2023-09-08T13:03:11;11.35;;;4.72;;
66886;SDS011;67239;51.680;5.976;2023-09-08T13:05:38;7.15;;;4.25;;
66886;SDS011;67239;51.680;5.976;2023-09-08T13:08:06;6.75;;;3.92;;
66886;SDS011;67239;51.680;5.976;2023-09-08T13:10:33;8.35;;;4.43;;
66886;SDS011;67239;51.680;5.976;2023-09-08T13:13:01;14.45;;;4.00;;
66886;SDS011;67239;51.680;5.976;2023-09-08T13:15:28;10.55;;;4.20;;
66886;SDS011;67239;51.680;5.976;2023-09-08T13:17:55;11.90;;;4.05;;
66886;SDS011;67239;51.680;5.976;2023-09-08T13:20:23;10.48;;;4.65;;
66886;SDS011;67239;51.680;5.976;2023-09-08T13:22:50;6.95;;;4.30;;
66886;SDS011;67239;51.680;5.976;2023-09-08T13:25:17;7.28;;;3.80;;
66886;SDS011;67239;51.680;5.976;2023-09-08T13:27:45;7.80;;;4.30;;
66886;SDS011;67239;51.680;5.976;2023-09-08T13:30:14;10.95;;;4.13;;
66886;SDS011;67239;51.680;5.976;2023-09-08T13:32:43;5.47;;;4.00;;
66886;SDS011;67239;51.680;5.976;2023-09-08T13:35:11;6.68;;;3.80;;
66886;SDS011;67239;51.680;5.976;2023-09-08T13:37:39;6.93;;;4.28;;
66886;SDS011;67239;51.680;5.976;2023-09-08T13:40:06;8.23;;;3.78;;
66886;SDS011;67239;51.680;5.976;2023-09-08T13:42:35;13.60;;;4.55;;
66886;SDS011;67239;51.680;5.976;2023-09-08T13:45:03;7.47;;;3.97;;
66886;SDS011;67239;51.680;5.976;2023-09-08T13:47:33;8.02;;;4.32;;
66886;SDS011;67239;51.680;5.976;2023-09-08T13:50:04;15.82;;;5.47;;
66886;SDS011;67239;51.680;5.976;2023-09-08T13:52:33;17.20;;;4.47;;
66886;SDS011;67239;51.680;5.976;2023-09-08T13:55:07;5.95;;;3.45;;
66886;SDS011;67239;51.680;5.976;2023-09-08T13:57:37;7.43;;;3.80;;
66886;SDS011;67239;51.680;5.976;2023-09-08T14:00:07;8.82;;;4.03;;
66886;SDS011;67239;51.680;5.976;2023-09-08T14:02:42;7.60;;;3.70;;
66886;SDS011;67239;51.680;5.976;2023-09-08T14:05:16;5.88;;;3.40;;
66886;SDS011;67239;51.680;5.976;2023-09-08T14:07:50;15.35;;;3.85;;
66886;SDS011;67239;51.680;5.976;2023-09-08T14:10:31;6.30;;;3.30;;
66886;SDS011;67239;51.680;5.976;2023-09-08T14:13:10;7.13;;;3.47;;
66886;SDS011;67239;51.680;5.976;2023-09-08T14:15:39;8.98;;;3.60;;
66886;SDS011;67239;51.680;5.976;2023-09-08T14:18:06;13.63;;;3.85;;
66886;SDS011;67239;51.680;5.976;2023-09-08T14:20:33;8.38;;;3.60;;
66886;SDS011;67239;51.680;5.976;2023-09-08T14:23:00;5.30;;;3.30;;
66886;SDS011;67239;51.680;5.976;2023-09-08T14:25:28;7.10;;;3.35;;
66886;SDS011;67239;51.680;5.976;2023-09-08T14:27:55;6.35;;;3.60;;
66886;SDS011;67239;51.680;5.976;2023-09-08T14:30:26;5.88;;;3.42;;
66886;SDS011;67239;51.680;5.976;2023-09-08T14:32:53;6.50;;;3.70;;
66886;SDS011;67239;51.680;5.976;2023-09-08T14:35:21;8.48;;;3.65;;
66886;SDS011;67239;51.680;5.976;2023-09-08T14:37:48;5.18;;;3.22;;
66886;SDS011;67239;51.680;5.976;2023-09-08T14:40:16;4.63;;;3.47;;
66886;SDS011;67239;51.680;5.976;2023-09-08T14:42:43;8.15;;;3.80;;
66886;SDS011;67239;51.680;5.976;2023-09-08T14:45:10;9.25;;;3.67;;
66886;SDS011;67239;51.680;5.976;2023-09-08T14:47:38;6.18;;;3.13;;
66886;SDS011;67239;51.680;5.976;2023-09-08T14:50:06;7.28;;;3.50;;
66886;SDS011;67239;51.680;5.976;2023-09-08T14:52:34;7.90;;;3.53;;
66886;SDS011;67239;51.680;5.976;2023-09-08T14:55:01;5.68;;;3.58;;